createdAt,value
2018-01-15T00:08:09.707Z,13.2
2018-01-15T00:18:47.289Z,12.9
2018-01-15T00:29:58.672Z,13.4
2018-01-15T00:40:36.168Z,12.8
2018-01-15T00:51:46.924Z,12.9
2018-01-15T01:02:28.657Z,11.4
2018-01-15T01:13:11.817Z,11.8
2018-01-15T01:23:53.348Z,11.6
2018-01-15T01:34:34.881Z,11
2018-01-15T01:45:14.403Z,11.4
2018-01-15T01:55:53.630Z,11.7
2018-01-15T02:06:35.489Z,10.8
2018-01-15T02:17:13.074Z,11.9
2018-01-15T02:27:51.840Z,11.2
2018-01-15T02:38:29.746Z,10.9
2018-01-15T02:49:11.120Z,11.2
2018-01-15T02:59:51.373Z,10.9
2018-01-15T03:10:31.027Z,11.6
2018-01-15T03:21:09.744Z,11.4
2018-01-15T03:31:47.782Z,11.5
2018-01-15T03:42:27.370Z,11.3
2018-01-15T03:53:04.929Z,11.2
2018-01-15T04:03:43.216Z,12.7
2018-01-15T04:14:55.297Z,12.1
2018-01-15T04:25:34.613Z,10.4
2018-01-15T04:36:17.119Z,10.2
2018-01-15T04:47:04.436Z,9.7
2018-01-15T04:57:48.083Z,10.5
2018-01-15T05:08:31.389Z,9.4
2018-01-15T05:19:13.834Z,10.6
2018-01-15T05:29:54.400Z,11
2018-01-15T05:40:36.595Z,10.5
2018-01-15T05:51:19.167Z,8
2018-01-15T06:01:59.434Z,13.2
2018-01-15T06:12:38.663Z,9.5
2018-01-15T06:23:53.005Z,9.7
2018-01-15T06:34:34.469Z,8.1
2018-01-15T06:45:18.902Z,7.9
2018-01-15T06:55:59.722Z,7.5
2018-01-15T07:06:39.465Z,8.4
2018-01-15T07:17:17.296Z,9.1
2018-01-15T07:27:56.611Z,7.1
2018-01-15T07:38:37.532Z,17.7
2018-01-15T07:49:16.874Z,6.7
2018-01-15T08:00:35.494Z,7.2
2018-01-15T08:11:47.571Z,5.4
2018-01-15T08:22:28.729Z,5.3
2018-01-15T08:33:08.932Z,6.3
2018-01-15T08:43:49.065Z,5.4
2018-01-15T08:54:42.576Z,5.4
2018-01-15T09:05:23.518Z,4.6
2018-01-15T09:16:01.920Z,5
2018-01-15T09:26:50.659Z,5.1
2018-01-15T09:37:32.082Z,4.3
2018-01-15T09:48:14.066Z,4
2018-01-15T09:58:55.440Z,4.4
2018-01-15T10:09:38.231Z,4.1
2018-01-15T10:20:18.105Z,4
2018-01-15T10:30:58.475Z,3.8
2018-01-15T10:41:39.055Z,4.1
2018-01-15T10:52:21.375Z,3.9
2018-01-15T11:03:04.305Z,3
2018-01-15T11:14:17.348Z,3.8
2018-01-15T11:25:01.067Z,3.3
2018-01-15T11:35:45.553Z,3
2018-01-15T11:46:24.956Z,2.7
2018-01-15T11:57:04.165Z,3.1
2018-01-15T12:07:43.841Z,3.5
2018-01-15T12:18:23.116Z,3.7
2018-01-15T12:29:03.735Z,2.9
2018-01-15T12:39:46.033Z,2.9
2018-01-15T12:50:26.429Z,2.9
2018-01-15T13:01:04.614Z,2.8
2018-01-15T13:11:44.068Z,2.9
2018-01-15T13:22:57.449Z,2.4
2018-01-15T13:33:38.739Z,2.2
2018-01-15T13:44:17.371Z,2
2018-01-15T13:54:56.087Z,2.8
2018-01-15T14:05:35.836Z,2.9
2018-01-15T14:16:16.036Z,2.7
2018-01-15T14:26:55.170Z,2.8
2018-01-15T14:37:33.495Z,3.3
2018-01-15T14:48:11.486Z,2.5
2018-01-15T14:58:50.651Z,3.9
2018-01-15T15:09:31.393Z,4.5
2018-01-15T15:20:20.588Z,3.1
2018-01-15T15:30:59.814Z,5.7
2018-01-15T15:41:37.965Z,7.4
2018-01-15T15:52:17.519Z,8.3
2018-01-15T16:02:58.486Z,6.4
2018-01-15T16:13:40.481Z,5.1
2018-01-15T16:24:19.985Z,6.2
2018-01-15T16:35:06.793Z,5.6
2018-01-15T16:45:48.014Z,5.8
2018-01-15T16:56:25.665Z,5.8
2018-01-15T17:07:03.036Z,5.7
2018-01-15T17:17:41.864Z,4.5
2018-01-15T17:28:27.724Z,4.3
2018-01-15T17:39:11.212Z,5
2018-01-15T17:49:50.525Z,4.3
2018-01-15T18:00:32.311Z,4.1
2018-01-15T18:11:14.868Z,4.7
2018-01-15T18:22:36.248Z,6.2
2018-01-15T18:33:53.634Z,6.6
2018-01-15T18:44:38.790Z,3.3
2018-01-15T18:55:57.063Z,2.9
2018-01-15T19:07:15.388Z,3
2018-01-15T19:18:02.340Z,3
2018-01-15T19:28:49.045Z,6.6
2018-01-15T19:39:35.260Z,10.2
2018-01-15T19:53:21.423Z,6.7
2018-01-15T20:04:06.963Z,9
2018-01-15T20:14:59.341Z,6.8
2018-01-15T20:25:38.743Z,7.4
2018-01-15T20:36:17.242Z,7.7
2018-01-15T20:46:58.661Z,7
2018-01-15T20:57:37.932Z,10.5
2018-01-15T21:08:23.859Z,8.7
2018-01-15T21:19:08.024Z,5.7
2018-01-15T21:29:49.182Z,6.2
2018-01-15T21:40:29.820Z,7.1
2018-01-15T21:51:10.004Z,5.1
2018-01-15T22:01:52.107Z,5.4
2018-01-15T22:12:32.645Z,5.4
2018-01-15T22:23:11.436Z,4.4
2018-01-15T22:33:48.413Z,3.7
2018-01-15T22:44:25.779Z,4.2
2018-01-15T22:55:05.082Z,3.5
2018-01-15T23:05:45.181Z,3.4
2018-01-15T23:16:35.615Z,3.1
2018-01-15T23:27:16.310Z,2.4
2018-01-15T23:37:58.062Z,3.4
2018-01-15T23:48:36.272Z,2.4
2018-01-15T23:59:15.064Z,2.6
